Time;durP1;ratioP1;P1;durP2;ratioP2;P2;SDS_P1;SDS_P2;PMS_P1;PMS_P2;Temp;Humidity;BMP_temperature;BMP_pressure;BME280_temperature;BME280_humidity;BME280_pressure;Samples;Min_cycle;Max_cycle;Signal;HPM_P1;HPM_P2
2022/10/04 00:01:56;;;;;;;4.15;3.78;;;17.60;59.00;;;;;;4998237;28;20319;-80
2022/10/04 00:04:25;;;;;;;4.38;3.97;;;17.60;59.10;;;;;;4998272;28;20220;-80
2022/10/04 00:06:56;;;;;;;5.68;4.13;;;17.60;59.10;;;;;;4998067;28;20193;-80
2022/10/04 00:09:24;;;;;;;4.25;3.80;;;17.60;59.20;;;;;;4998225;28;20267;-80
2022/10/04 00:11:52;;;;;;;5.40;3.92;;;17.60;59.00;;;;;;4998538;28;20209;-80
2022/10/04 00:14:21;;;;;;;5.50;4.13;;;17.60;59.10;;;;;;4998082;28;20197;-80
2022/10/04 00:16:49;;;;;;;4.50;4.10;;;17.60;59.10;;;;;;4998095;28;20208;-80
2022/10/04 00:19:37;;;;;;;4.50;4.00;;;17.60;58.90;;;;;;5015409;28;20240;-80
2022/10/04 00:22:27;;;;;;;4.80;4.32;;;17.50;59.00;;;;;;4997898;28;20227;-80
2022/10/04 00:25:21;;;;;;;4.65;3.95;;;17.50;59.10;;;;;;4998753;28;20201;-80
2022/10/04 00:28:28;;;;;;;5.10;4.60;;;17.50;59.00;;;;;;4997673;28;20255;-80
2022/10/04 00:31:16;;;;;;;4.70;4.30;;;17.50;58.90;;;;;;4997774;28;20192;-80
2022/10/04 00:33:44;;;;;;;4.60;4.20;;;17.50;58.90;;;;;;4997596;28;20684;-80
2022/10/04 00:36:38;;;;;;;4.15;3.75;;;17.50;59.10;;;;;;4997834;28;20205;-80
2022/10/04 00:39:14;;;;;;;4.55;3.95;;;17.50;59.10;;;;;;4997703;28;20216;-79
2022/10/04 00:41:55;;;;;;;4.47;4.07;;;17.50;59.10;;;;;;4997809;28;20239;-79
2022/10/04 00:44:23;;;;;;;4.50;4.10;;;17.40;58.90;;;;;;4997794;28;20201;-79
2022/10/04 00:46:51;;;;;;;4.65;4.07;;;17.40;59.00;;;;;;4997591;28;20208;-79
2022/10/04 00:49:20;;;;;;;4.20;3.80;;;17.40;58.80;;;;;;4997367;28;20224;-80
2022/10/04 00:51:49;;;;;;;4.45;3.97;;;17.40;58.90;;;;;;4997357;28;20211;-80
2022/10/04 00:54:18;;;;;;;6.13;3.85;;;17.40;58.70;;;;;;4997654;28;20221;-80
2022/10/04 00:56:50;;;;;;;4.40;4.00;;;17.40;58.70;;;;;;4997727;28;20204;-80
2022/10/04 00:59:31;;;;;;;4.53;3.88;;;17.40;58.70;;;;;;4997348;28;20576;-79
2022/10/04 01:02:00;;;;;;;4.07;3.67;;;17.40;58.80;;;;;;4997243;28;20240;-79
2022/10/04 01:04:39;;;;;;;4.30;3.90;;;17.30;58.80;;;;;;4997251;28;20208;-80
2022/10/04 01:07:06;;;;;;;5.45;4.32;;;17.40;58.70;;;;;;4997284;28;20185;-80
2022/10/04 01:09:36;;;;;;;4.22;3.83;;;17.30;58.60;;;;;;4997014;28;20213;-80
2022/10/04 01:12:06;;;;;;;4.60;4.18;;;17.30;58.80;;;;;;4997390;28;20217;-80
2022/10/04 01:14:39;;;;;;;4.22;3.83;;;17.30;58.60;;;;;;4997175;28;20188;-80
2022/10/04 01:17:07;;;;;;;4.40;4.00;;;17.30;58.80;;;;;;5014865;28;20181;-79
2022/10/04 01:19:36;;;;;;;6.00;4.30;;;17.30;58.70;;;;;;4997297;28;20576;-79
2022/10/04 01:22:14;;;;;;;4.18;3.83;;;17.30;58.70;;;;;;4997021;28;20231;-79
2022/10/04 01:24:43;;;;;;;4.22;3.83;;;17.30;58.60;;;;;;4996985;28;20192;-80
2022/10/04 01:27:32;;;;;;;4.45;4.05;;;17.30;58.80;;;;;;4998053;28;20293;-80
2022/10/04 01:30:00;;;;;;;4.75;3.85;;;17.30;58.60;;;;;;4997949;28;20248;-80
2022/10/04 01:32:27;;;;;;;4.20;3.80;;;17.30;58.60;;;;;;4997425;28;20636;-80
2022/10/04 01:34:54;;;;;;;4.50;4.10;;;17.20;58.60;;;;;;4996757;28;20197;-80
2022/10/04 01:37:21;;;;;;;4.25;3.78;;;17.20;58.70;;;;;;5014428;28;20196;-80
2022/10/04 01:39:49;;;;;;;4.53;4.00;;;17.20;58.50;;;;;;5014412;28;20185;-80
2022/10/04 01:42:18;;;;;;;4.30;3.70;;;17.20;58.60;;;;;;4996593;28;20216;-79
2022/10/04 01:44:48;;;;;;;4.35;3.90;;;17.20;58.50;;;;;;4996552;28;20201;-79
2022/10/04 01:47:17;;;;;;;4.10;3.70;;;17.20;58.40;;;;;;4996687;28;20197;-80
2022/10/04 01:49:44;;;;;;;3.75;3.45;;;17.20;58.80;;;;;;4996288;28;20224;-80
2022/10/04 01:52:15;;;;;;;3.78;3.47;;;17.10;58.60;;;;;;5014188;28;20305;-79
2022/10/04 01:54:43;;;;;;;4.22;3.67;;;17.20;58.70;;;;;;4996739;28;20219;-79
2022/10/04 01:57:14;;;;;;;3.58;3.20;;;17.10;58.40;;;;;;4996697;28;20201;-80
2022/10/04 01:59:44;;;;;;;4.68;3.40;;;17.20;58.70;;;;;;4997779;28;20701;-80
2022/10/04 02:02:18;;;;;;;4.13;3.72;;;17.20;58.70;;;;;;4996687;28;20662;-79
2022/10/04 02:04:47;;;;;;;3.78;3.38;;;17.10;58.70;;;;;;4997456;28;20708;-80
2022/10/04 02:07:14;;;;;;;3.92;3.63;;;17.10;58.70;;;;;;4997682;28;20235;-80
2022/10/04 02:09:44;;;;;;;3.45;2.90;;;17.10;58.40;;;;;;5000710;28;20243;-80
2022/10/04 02:12:16;;;;;;;3.75;3.45;;;17.10;58.60;;;;;;5000526;28;20220;-80
2022/10/04 02:14:46;;;;;;;3.60;3.30;;;17.10;58.70;;;;;;5000411;28;20620;-80
2022/10/04 02:17:13;;;;;;;3.80;3.50;;;17.10;58.60;;;;;;5000364;28;20201;-80
2022/10/04 02:19:41;;;;;;;3.90;3.60;;;17.10;58.60;;;;;;5000307;28;20600;-80
2022/10/04 02:22:09;;;;;;;4.18;3.83;;;17.00;58.40;;;;;;5000352;28;20316;-80
2022/10/04 02:24:37;;;;;;;3.78;3.47;;;17.00;58.40;;;;;;5000020;28;20196;-80
2022/10/04 02:27:05;;;;;;;3.58;3.22;;;17.10;58.50;;;;;;5000211;28;20201;-80
2022/10/04 02:29:33;;;;;;;3.42;3.15;;;17.00;58.50;;;;;;5000337;28;20711;-80
2022/10/04 02:34:46;;;;;;;3.55;3.25;;;17.00;58.40;;;;;;5000217;28;20262;-79
2022/10/04 02:37:14;;;;;;;3.55;3.25;;;17.00;58.50;;;;;;5000104;28;20223;-79
2022/10/04 02:39:43;;;;;;;3.67;3.38;;;17.00;58.10;;;;;;5000048;28;20228;-79
2022/10/04 02:42:13;;;;;;;3.95;3.20;;;17.00;58.30;;;;;;5000107;28;20272;-79
2022/10/04 02:44:44;;;;;;;3.50;3.20;;;17.00;58.40;;;;;;5017469;28;20212;-79
2022/10/04 02:47:13;;;;;;;3.45;3.15;;;17.00;58.40;;;;;;4999737;28;20201;-79
2022/10/04 02:49:43;;;;;;;3.80;3.50;;;16.90;58.20;;;;;;4999984;28;20320;-79
2022/10/04 02:52:12;;;;;;;3.60;3.30;;;16.90;58.40;;;;;;4999875;28;20233;-79
2022/10/04 02:54:42;;;;;;;3.45;3.15;;;17.00;58.60;;;;;;5000274;28;20197;-79
2022/10/04 02:57:14;;;;;;;3.60;3.30;;;16.90;58.30;;;;;;4999827;28;20224;-79
2022/10/04 02:59:42;;;;;;;3.72;3.42;;;16.90;58.20;;;;;;4999477;28;20193;-79
2022/10/04 03:02:21;;;;;;;4.07;3.70;;;16.90;58.20;;;;;;4999571;28;20229;-79
2022/10/04 03:04:48;;;;;;;3.65;3.35;;;16.90;58.30;;;;;;4999552;28;20200;-79
2022/10/04 03:07:15;;;;;;;3.53;3.22;;;16.90;58.00;;;;;;4999432;28;20254;-79
2022/10/04 03:09:42;;;;;;;3.90;3.60;;;16.90;57.80;;;;;;4999228;28;20217;-79
2022/10/04 03:12:10;;;;;;;4.20;3.80;;;16.90;57.90;;;;;;4999379;28;20231;-80
2022/10/04 03:14:57;;;;;;;4.07;3.70;;;16.90;57.70;;;;;;5017058;28;20192;-80
2022/10/04 03:17:24;;;;;;;5.25;3.35;;;16.90;57.70;;;;;;4999229;28;20211;-80
2022/10/04 03:19:51;;;;;;;4.03;3.55;;;16.90;58.00;;;;;;4999071;28;20197;-80
2022/10/04 03:22:19;;;;;;;3.50;3.17;;;16.90;57.90;;;;;;5000207;28;20291;-80
2022/10/04 03:24:47;;;;;;;3.40;3.10;;;16.90;57.80;;;;;;4999867;28;20724;-80
2022/10/04 03:27:15;;;;;;;3.78;3.33;;;16.90;57.80;;;;;;4998936;28;20207;-80
2022/10/04 03:29:43;;;;;;;3.70;3.40;;;16.90;57.80;;;;;;4998954;28;20219;-80
2022/10/04 03:32:13;;;;;;;3.65;3.35;;;16.90;57.90;;;;;;4998832;28;20228;-79
2022/10/04 03:34:42;;;;;;;3.50;3.30;;;16.90;57.80;;;;;;4998967;28;20211;-79
2022/10/04 03:37:12;;;;;;;3.63;3.33;;;16.90;58.00;;;;;;4999989;28;20625;-79
2022/10/04 03:39:40;;;;;;;3.67;3.38;;;16.90;57.80;;;;;;4999252;28;20220;-79
2022/10/04 03:42:10;;;;;;;3.78;3.47;;;16.90;57.80;;;;;;4999171;28;20221;-79
2022/10/04 03:44:37;;;;;;;3.60;3.30;;;17.00;57.90;;;;;;4998696;28;20201;-79
2022/10/04 03:47:08;;;;;;;3.53;3.20;;;16.90;57.70;;;;;;4998582;28;20741;-79
2022/10/04 03:49:37;;;;;;;3.78;3.45;;;16.90;57.60;;;;;;4998836;28;20219;-79
2022/10/04 03:52:04;;;;;;;3.40;3.10;;;16.90;57.60;;;;;;5016024;28;20213;-79
2022/10/04 03:54:32;;;;;;;3.50;3.20;;;17.00;57.70;;;;;;4998710;28;20204;-79
2022/10/04 03:56:59;;;;;;;3.70;3.40;;;17.00;57.70;;;;;;4998427;28;20216;-78
2022/10/04 03:59:26;;;;;;;3.42;3.13;;;17.00;57.60;;;;;;4998306;28;20208;-79
2022/10/04 04:02:04;;;;;;;3.50;3.20;;;17.00;57.80;;;;;;5016640;28;20196;-79
2022/10/04 04:04:42;;;;;;;3.20;2.90;;;17.00;57.60;;;;;;4999521;28;20185;-79
2022/10/04 04:07:12;;;;;;;4.30;3.30;;;17.00;57.50;;;;;;4998620;28;20555;-79
2022/10/04 04:09:42;;;;;;;3.47;3.10;;;17.00;57.50;;;;;;4998262;28;20292;-80
2022/10/04 04:12:11;;;;;;;4.25;3.35;;;17.00;57.50;;;;;;4999058;28;20240;-79
2022/10/04 04:14:38;;;;;;;3.65;3.35;;;17.00;57.90;;;;;;4998280;28;20200;-79
2022/10/04 04:17:29;;;;;;;3.55;3.25;;;16.90;57.50;;;;;;4998078;28;20291;-80
2022/10/04 04:19:58;;;;;;;3.70;3.20;;;17.00;58.00;;;;;;4998276;28;20189;-79
2022/10/04 04:22:30;;;;;;;5.50;3.53;;;17.00;58.60;;;;;;4998525;28;20236;-79
2022/10/04 04:24:59;;;;;;;4.10;3.47;;;17.00;59.00;;;;;;4998234;28;20232;-80
2022/10/04 04:27:26;;;;;;;3.80;3.38;;;16.90;59.10;;;;;;4998270;28;20248;-80
2022/10/04 04:29:53;;;;;;;3.60;3.30;;;16.90;58.90;;;;;;4997675;28;20279;-80
2022/10/04 04:32:23;;;;;;;4.50;3.30;;;17.00;59.00;;;;;;4997904;28;20315;-80
2022/10/04 04:34:51;;;;;;;3.65;3.35;;;17.00;59.00;;;;;;4997729;28;20201;-80
2022/10/04 04:37:20;;;;;;;3.15;2.95;;;17.00;59.00;;;;;;4997947;28;20196;-78
2022/10/04 04:39:53;;;;;;;6.38;3.53;;;17.00;59.10;;;;;;5001129;28;20255;-77
2022/10/04 04:42:22;;;;;;;3.30;3.00;;;17.00;59.20;;;;;;5002267;28;20225;-76
2022/10/04 04:44:50;;;;;;;3.75;3.45;;;17.00;58.90;;;;;;5003505;28;20208;-76
2022/10/04 04:47:27;;;;;;;3.40;3.10;;;17.00;58.90;;;;;;4999932;28;20208;-76
2022/10/04 04:49:56;;;;;;;3.67;3.22;;;17.00;59.10;;;;;;4999981;28;20208;-77
2022/10/04 04:52:26;;;;;;;4.10;3.60;;;17.00;58.90;;;;;;4999116;28;20307;-77
2022/10/04 04:54:54;;;;;;;3.58;3.20;;;17.00;59.00;;;;;;5000690;28;20197;-77
2022/10/04 04:57:21;;;;;;;3.33;3.03;;;17.00;59.00;;;;;;5000296;28;20205;-77
2022/10/04 04:59:49;;;;;;;3.40;3.10;;;17.10;59.00;;;;;;4999506;28;20193;-77
2022/10/04 05:02:33;;;;;;;4.82;3.50;;;17.00;58.60;;;;;;4999928;28;20213;-77
2022/10/04 05:05:21;;;;;;;3.53;3.10;;;17.00;58.70;;;;;;4999882;28;20220;-77
2022/10/04 05:07:50;;;;;;;4.25;3.50;;;17.00;58.50;;;;;;4999739;28;20197;-77
2022/10/04 05:10:31;;;;;;;3.45;3.15;;;17.00;58.60;;;;;;4998998;28;20217;-76
2022/10/04 05:12:59;;;;;;;4.50;3.10;;;17.00;58.90;;;;;;4998483;28;20307;-76
2022/10/04 05:15:27;;;;;;;5.53;3.00;;;17.00;58.10;;;;;;4999694;28;20188;-76
2022/10/04 05:17:54;;;;;;;3.70;3.10;;;17.00;58.00;;;;;;4999921;28;20204;-77
2022/10/04 05:20:21;;;;;;;4.50;2.97;;;17.00;58.00;;;;;;4997941;28;20204;-76
2022/10/04 05:22:50;;;;;;;4.05;3.10;;;17.00;58.00;;;;;;4997942;28;20244;-76
2022/10/04 05:25:28;;;;;;;3.08;2.88;;;17.00;57.90;;;;;;5015569;28;20559;-77
2022/10/04 05:27:55;;;;;;;3.17;2.95;;;16.90;57.70;;;;;;4998312;28;20200;-76
2022/10/04 05:30:38;;;;;;;3.22;3.03;;;16.90;57.70;;;;;;4997698;28;20226;-77
2022/10/04 05:33:07;;;;;;;3.10;2.90;;;16.90;57.60;;;;;;4997360;28;20722;-76
2022/10/04 05:35:41;;;;;;;3.42;2.95;;;16.90;57.60;;;;;;4997860;28;20201;-76
2022/10/04 05:38:11;;;;;;;3.30;3.00;;;16.90;57.70;;;;;;4998502;28;20192;-77
2022/10/04 05:40:43;;;;;;;4.97;3.00;;;16.90;57.80;;;;;;4998981;28;20193;-76
2022/10/04 05:43:22;;;;;;;4.93;2.95;;;16.90;58.00;;;;;;4997855;28;20279;-77
2022/10/04 05:46:04;;;;;;;3.42;3.13;;;16.90;57.80;;;;;;4998940;28;20657;-77
2022/10/04 05:48:31;;;;;;;3.00;2.80;;;16.90;57.80;;;;;;4998828;28;20196;-78
2022/10/04 05:50:58;;;;;;;2.78;2.58;;;16.90;57.70;;;;;;4997623;28;20649;-78
2022/10/04 05:53:32;;;;;;;3.25;2.95;;;16.90;57.70;;;;;;4997000;28;20616;-78
2022/10/04 05:56:04;;;;;;;3.35;3.05;;;16.90;57.60;;;;;;4997541;28;20645;-78
2022/10/04 05:58:43;;;;;;;3.13;2.83;;;17.00;57.70;;;;;;4997257;28;20661;-78
2022/10/04 06:01:18;;;;;;;3.38;3.08;;;16.90;57.60;;;;;;4999366;28;20188;-77
2022/10/04 06:03:59;;;;;;;3.38;3.08;;;17.00;57.50;;;;;;4996613;28;20219;-77
2022/10/04 06:06:29;;;;;;;3.25;2.95;;;17.00;57.60;;;;;;4996735;28;20193;-77
2022/10/04 06:09:05;;;;;;;3.20;2.90;;;17.00;57.60;;;;;;4997503;28;20193;-77
2022/10/04 06:11:42;;;;;;;3.17;2.88;;;17.00;57.70;;;;;;4996428;28;20606;-77
2022/10/04 06:14:33;;;;;;;2.88;2.60;;;17.10;57.70;;;;;;4997032;28;20223;-77
2022/10/04 06:17:23;;;;;;;4.00;2.95;;;17.00;57.60;;;;;;5014631;28;20629;-77
2022/10/04 06:20:09;;;;;;;3.47;3.17;;;17.00;57.60;;;;;;4996510;28;20203;-77
2022/10/04 06:22:43;;;;;;;2.72;2.53;;;17.10;57.60;;;;;;4997048;28;20312;-77
2022/10/04 06:25:13;;;;;;;2.95;2.75;;;17.10;57.50;;;;;;4996965;28;20645;-78
2022/10/04 06:27:41;;;;;;;3.42;2.72;;;17.10;57.60;;;;;;4997065;28;20188;-78
2022/10/04 06:30:13;;;;;;;3.13;2.80;;;17.10;57.40;;;;;;4997051;28;20239;-78
2022/10/04 06:33:02;;;;;;;3.05;2.85;;;17.10;57.70;;;;;;4996744;28;20229;-78
2022/10/04 06:35:57;;;;;;;3.47;2.88;;;17.10;57.50;;;;;;4999479;28;20192;-78
2022/10/04 06:38:47;;;;;;;3.13;2.88;;;17.20;57.40;;;;;;4999155;28;20201;-78
2022/10/04 06:41:28;;;;;;;3.70;3.40;;;17.20;57.30;;;;;;4997357;28;20196;-78
2022/10/04 06:44:06;;;;;;;3.42;3.13;;;17.20;57.30;;;;;;4997064;28;20220;-78
2022/10/04 06:46:37;;;;;;;3.35;2.67;;;17.20;57.20;;;;;;4997293;28;20192;-78
2022/10/04 06:49:25;;;;;;;3.22;2.92;;;17.30;57.30;;;;;;4997462;28;20197;-78
2022/10/04 06:52:07;;;;;;;3.08;2.80;;;17.30;57.30;;;;;;4996939;28;20239;-78
2022/10/04 06:54:43;;;;;;;3.00;2.80;;;17.30;57.20;;;;;;4999463;28;20731;-78
2022/10/04 06:57:21;;;;;;;3.13;2.92;;;17.30;57.10;;;;;;5000328;28;20711;-78
2022/10/04 07:00:03;;;;;;;3.20;3.00;;;17.40;57.20;;;;;;5000444;28;20247;-78
2022/10/04 07:02:32;;;;;;;3.40;3.08;;;17.40;57.10;;;;;;4999787;28;20216;-78
2022/10/04 07:05:01;;;;;;;2.92;2.72;;;17.40;56.90;;;;;;5000032;28;20197;-78
2022/10/04 07:07:35;;;;;;;3.40;3.10;;;17.40;56.80;;;;;;5000054;28;20263;-78
2022/10/04 07:10:16;;;;;;;3.00;2.70;;;17.50;56.80;;;;;;5000261;28;20248;-78
2022/10/04 07:12:48;;;;;;;3.15;2.85;;;17.50;56.80;;;;;;5001432;28;20281;-78
2022/10/04 07:15:17;;;;;;;2.90;2.70;;;17.50;56.60;;;;;;5000182;28;20217;-78
2022/10/04 07:17:45;;;;;;;3.85;3.10;;;17.50;56.60;;;;;;4999871;28;20201;-78
2022/10/04 07:20:18;;;;;;;3.20;2.90;;;17.60;56.60;;;;;;4999600;28;20197;-78
2022/10/04 07:22:49;;;;;;;3.38;3.10;;;17.60;56.40;;;;;;4999067;28;20219;-78
2022/10/04 07:25:19;;;;;;;2.83;2.63;;;17.60;56.50;;;;;;5000574;28;20291;-78
2022/10/04 07:29:19;;;;;;;2.90;2.70;;;17.60;56.90;;;;;;4999421;28;20211;-78
2022/10/04 07:30:41;;;;;;;3.13;2.92;;;17.60;56.00;;;;;;4999345;28;20197;-78
2022/10/04 07:33:08;;;;;;;3.00;2.80;;;17.60;56.10;;;;;;4998976;28;20311;-78
2022/10/04 07:35:36;;;;;;;3.20;3.00;;;17.70;56.20;;;;;;4999279;28;20220;-78
2022/10/04 07:38:08;;;;;;;4.13;2.70;;;17.70;56.20;;;;;;4999305;28;20205;-78
2022/10/04 07:40:37;;;;;;;2.95;2.75;;;17.70;56.10;;;;;;4998819;28;20231;-78
2022/10/04 07:43:07;;;;;;;2.72;2.53;;;17.70;56.00;;;;;;4998968;28;20248;-78
2022/10/04 07:45:34;;;;;;;3.03;2.83;;;17.80;56.20;;;;;;4998851;28;20204;-78
2022/10/04 07:48:10;;;;;;;3.25;2.95;;;17.80;56.30;;;;;;4998765;28;20201;-78
2022/10/04 07:50:39;;;;;;;3.65;2.95;;;17.80;56.00;;;;;;5007769;28;20208;-78
2022/10/04 07:53:07;;;;;;;2.80;2.60;;;17.90;56.00;;;;;;4999405;28;20232;-78
2022/10/04 07:55:40;;;;;;;2.90;2.70;;;18.00;55.90;;;;;;4998431;28;20201;-78
2022/10/04 07:58:15;;;;;;;3.25;2.60;;;18.00;55.80;;;;;;4999556;28;20259;-78
2022/10/04 08:00:48;;;;;;;3.40;2.72;;;18.10;55.90;;;;;;5016962;28;20180;-78
2022/10/04 08:03:23;;;;;;;3.00;2.80;;;18.10;56.10;;;;;;5016171;28;20243;-78
2022/10/04 08:05:52;;;;;;;2.95;2.70;;;18.30;56.10;;;;;;4997871;28;20278;-78
2022/10/04 08:08:27;;;;;;;2.60;2.40;;;18.30;55.50;;;;;;4998677;28;20609;-78
2022/10/04 08:10:59;;;;;;;2.80;2.60;;;18.40;55.50;;;;;;5015847;28;20271;-78
2022/10/04 08:13:31;;;;;;;2.95;2.75;;;18.40;55.40;;;;;;4998779;28;20642;-78
2022/10/04 08:16:00;;;;;;;2.90;2.42;;;18.50;55.40;;;;;;4999074;28;20611;-78
2022/10/04 08:18:36;;;;;;;3.25;2.70;;;18.50;55.30;;;;;;5016369;28;20189;-78
2022/10/04 08:21:05;;;;;;;2.70;2.50;;;18.50;55.30;;;;;;5000136;28;20231;-78
2022/10/04 08:23:41;;;;;;;2.90;2.70;;;18.50;55.30;;;;;;4999181;28;20315;-78
2022/10/04 08:26:16;;;;;;;3.58;2.58;;;18.50;55.30;;;;;;4998522;28;20231;-78
2022/10/04 08:31:40;;;;;;;2.50;2.30;;;18.60;55.30;;;;;;4999697;28;20271;-78
2022/10/04 08:34:20;;;;;;;2.40;2.20;;;18.60;55.40;;;;;;4999861;28;20193;-78
2022/10/04 08:36:55;;;;;;;3.03;2.60;;;18.80;55.60;;;;;;4999671;28;20192;-78
2022/10/04 08:39:33;;;;;;;2.67;2.47;;;18.80;55.30;;;;;;4998792;28;20197;-78
2022/10/04 08:42:11;;;;;;;2.60;2.40;;;18.90;55.20;;;;;;4999377;28;20232;-78
2022/10/04 08:45:06;;;;;;;3.22;2.83;;;19.00;54.90;;;;;;4998936;28;20204;-78
2022/10/04 08:47:51;;;;;;;2.92;2.47;;;19.10;54.60;;;;;;4999219;28;20289;-78
2022/10/04 08:50:42;;;;;;;2.55;2.35;;;19.30;54.40;;;;;;4999042;28;20193;-78
2022/10/04 08:53:34;;;;;;;2.70;2.50;;;19.40;54.10;;;;;;4998588;28;20267;-78
2022/10/04 08:56:10;;;;;;;2.63;2.42;;;19.40;53.60;;;;;;5015766;28;20177;-78
2022/10/04 08:59:21;;;;;;;2.65;2.45;;;19.50;53.60;;;;;;4997652;28;20687;-78
2022/10/04 09:02:21;;;;;;;2.67;2.47;;;19.60;53.40;;;;;;4992021;28;20199;-78
2022/10/04 09:05:12;;;;;;;3.35;2.63;;;19.60;53.30;;;;;;4974923;28;20196;-78
2022/10/04 09:08:15;;;;;;;2.92;2.70;;;19.60;53.10;;;;;;4999212;28;20228;-78
2022/10/04 09:11:01;;;;;;;2.63;2.42;;;19.70;53.30;;;;;;4998939;28;20283;-78
2022/10/04 09:13:34;;;;;;;2.50;2.20;;;19.90;53.30;;;;;;4998682;28;20680;-78
2022/10/04 09:16:08;;;;;;;4.18;2.88;;;19.90;53.10;;;;;;4998507;28;20201;-78
2022/10/04 09:18:49;;;;;;;2.67;2.47;;;20.10;53.00;;;;;;4998530;28;20220;-78
2022/10/04 09:21:25;;;;;;;2.42;2.22;;;20.20;52.90;;;;;;4998242;28;20223;-78
2022/10/04 09:24:19;;;;;;;2.50;2.30;;;20.30;52.70;;;;;;4997755;28;20639;-78
2022/10/04 09:26:49;;;;;;;2.50;2.30;;;20.40;52.50;;;;;;4998110;28;20618;-78
2022/10/04 09:29:32;;;;;;;3.00;2.70;;;20.60;52.40;;;;;;5015980;28;20181;-78
2022/10/04 09:32:25;;;;;;;2.67;2.42;;;20.70;52.20;;;;;;4998404;28;20232;-78
2022/10/04 09:35:17;;;;;;;2.35;2.20;;;20.80;51.90;;;;;;4998195;28;20195;-78
2022/10/04 09:38:03;;;;;;;2.63;2.40;;;20.90;51.90;;;;;;4997782;28;20201;-78
2022/10/04 09:40:47;;;;;;;2.40;2.20;;;21.00;51.70;;;;;;4997690;28;20197;-78
2022/10/04 09:43:44;;;;;;;2.55;2.35;;;21.00;51.30;;;;;;4997368;28;20299;-79
2022/10/04 09:46:28;;;;;;;3.25;2.20;;;21.10;51.20;;;;;;4973103;28;20251;-78
2022/10/04 09:49:00;;;;;;;4.35;2.25;;;21.10;51.10;;;;;;5014734;28;20212;-78
2022/10/04 09:52:01;;;;;;;2.50;2.10;;;21.10;51.10;;;;;;4997640;28;20319;-78
2022/10/04 09:55:03;;;;;;;2.30;2.10;;;21.20;51.20;;;;;;4997094;28;20196;-78
2022/10/04 09:57:42;;;;;;;2.40;2.20;;;21.20;51.10;;;;;;4937997;29;20210;-78
2022/10/04 10:00:23;;;;;;;2.78;2.13;;;21.20;51.20;;;;;;4982874;28;20204;-78
2022/10/04 10:03:21;;;;;;;2.70;2.00;;;21.20;51.20;;;;;;5015835;28;20736;-78
2022/10/04 10:06:14;;;;;;;2.20;2.00;;;21.20;51.20;;;;;;4997635;28;20192;-78
2022/10/04 10:08:48;;;;;;;2.50;1.85;;;21.30;51.20;;;;;;4997527;28;20192;-78
2022/10/04 10:14:27;;;;;;;2.30;2.10;;;21.30;51.10;;;;;;4997345;28;20205;-78
2022/10/04 10:17:01;;;;;;;2.15;2.05;;;21.30;51.00;;;;;;4997118;28;20293;-78
2022/10/04 10:19:46;;;;;;;3.38;2.00;;;21.30;51.00;;;;;;5015152;28;20180;-78
2022/10/04 10:22:25;;;;;;;2.65;2.00;;;21.30;50.80;;;;;;4997111;28;20220;-78
2022/10/04 10:25:14;;;;;;;2.10;1.90;;;21.30;50.80;;;;;;4997125;28;20553;-78
2022/10/04 10:27:57;;;;;;;2.35;2.15;;;21.30;50.80;;;;;;4998225;28;20240;-78
2022/10/04 10:30:25;;;;;;;3.35;2.33;;;21.30;50.70;;;;;;5001136;28;20608;-78
2022/10/04 10:33:31;;;;;;;2.28;2.08;;;21.30;50.70;;;;;;5000442;28;20714;-78
2022/10/04 10:36:20;;;;;;;1.90;1.80;;;21.30;50.70;;;;;;5001355;28;20729;-79
2022/10/04 10:38:55;;;;;;;2.20;2.00;;;21.30;50.70;;;;;;5016449;28;20258;-78
2022/10/04 10:41:35;;;;;;;2.20;2.00;;;21.30;51.30;;;;;;5000688;28;20662;-79
2022/10/04 10:44:15;;;;;;;2.10;2.00;;;21.40;50.70;;;;;;5001003;28;20206;-78
2022/10/04 10:46:50;;;;;;;2.20;2.00;;;21.30;50.60;;;;;;5018452;28;20181;-78
2022/10/04 10:49:37;;;;;;;2.10;2.00;;;21.40;50.60;;;;;;5000432;28;20193;-78
2022/10/04 10:52:36;;;;;;;1.90;1.80;;;21.40;50.60;;;;;;5017930;28;20220;-78
2022/10/04 10:55:40;;;;;;;1.92;1.83;;;21.40;50.50;;;;;;4999965;28;20193;-78
2022/10/04 10:58:24;;;;;;;2.22;2.13;;;21.40;50.60;;;;;;5000764;28;20216;-79
2022/10/04 11:00:53;;;;;;;2.15;1.98;;;21.30;50.40;;;;;;5000972;28;20192;-78
2022/10/04 11:03:43;;;;;;;2.28;2.10;;;21.40;50.40;;;;;;5001172;28;20691;-78
2022/10/04 11:06:16;;;;;;;2.83;2.20;;;21.40;50.50;;;;;;4996681;28;20619;-78
2022/10/04 11:09:19;;;;;;;3.70;2.10;;;21.40;50.60;;;;;;5018435;28;20676;-78
2022/10/04 11:12:17;;;;;;;2.00;1.90;;;21.30;50.60;;;;;;4994012;28;20196;-78
2022/10/04 11:15:06;;;;;;;2.10;1.90;;;21.30;51.20;;;;;;5000131;28;20205;-78
2022/10/04 11:17:55;;;;;;;2.10;1.90;;;21.30;50.70;;;;;;4999846;28;20201;-78
2022/10/04 11:20:34;;;;;;;2.20;2.00;;;21.30;50.80;;;;;;4999955;28;20189;-78
2022/10/04 11:23:26;;;;;;;2.30;2.10;;;21.30;50.80;;;;;;4999288;28;20212;-79
2022/10/04 11:26:36;;;;;;;2.28;2.10;;;21.40;50.90;;;;;;5016875;28;20608;-78
2022/10/04 11:29:12;;;;;;;2.22;2.03;;;21.40;51.00;;;;;;4997624;28;20594;-78
2022/10/04 11:31:54;;;;;;;2.50;2.30;;;21.30;51.00;;;;;;4999955;28;20567;-78
2022/10/04 11:34:47;;;;;;;2.10;1.90;;;21.30;51.00;;;;;;4999909;28;20199;-78
2022/10/04 11:37:16;;;;;;;2.38;2.17;;;21.40;51.10;;;;;;4999666;28;20208;-78
2022/10/04 11:39:57;;;;;;;2.47;2.10;;;21.40;51.10;;;;;;4998224;28;20732;-78
2022/10/04 11:42:30;;;;;;;1.80;1.70;;;21.40;51.10;;;;;;4999551;28;20587;-78
2022/10/04 11:45:21;;;;;;;2.05;1.90;;;21.40;51.20;;;;;;5016889;28;20184;-78
2022/10/04 11:47:55;;;;;;;1.90;1.80;;;21.30;51.20;;;;;;4999002;28;20223;-78
2022/10/04 11:50:34;;;;;;;2.22;2.03;;;21.40;51.30;;;;;;5016922;28;20180;-78
2022/10/04 11:53:20;;;;;;;2.22;2.03;;;21.30;51.30;;;;;;4998965;28;20271;-78
2022/10/04 11:56:23;;;;;;;2.20;2.00;;;21.40;51.30;;;;;;5028979;28;20205;-78
2022/10/04 11:59:01;;;;;;;2.05;1.85;;;21.30;51.30;;;;;;4997268;28;20618;-79
2022/10/04 12:01:46;;;;;;;2.38;2.13;;;21.40;51.30;;;;;;5000285;28;20271;-78
2022/10/04 12:04:24;;;;;;;2.00;1.90;;;21.40;51.30;;;;;;4999693;28;20280;-78
2022/10/04 12:07:00;;;;;;;2.38;2.00;;;21.40;51.30;;;;;;4999592;28;20316;-78
2022/10/04 12:09:30;;;;;;;2.35;2.15;;;21.40;51.30;;;;;;4999417;28;20563;-78
2022/10/04 12:12:37;;;;;;;2.30;2.10;;;21.40;51.30;;;;;;4998346;28;20225;-78
2022/10/04 12:15:29;;;;;;;2.10;1.90;;;21.50;51.40;;;;;;4998601;28;20283;-78
2022/10/04 12:18:16;;;;;;;1.83;1.73;;;21.40;51.30;;;;;;4992169;28;20208;-78
2022/10/04 12:21:00;;;;;;;2.10;1.98;;;21.50;51.40;;;;;;4996786;28;20201;-78
2022/10/04 12:23:53;;;;;;;2.10;1.90;;;21.40;51.30;;;;;;4999145;28;20213;-78
2022/10/04 12:26:38;;;;;;;2.00;1.90;;;21.50;51.40;;;;;;4996361;28;20196;-78
2022/10/04 12:29:20;;;;;;;1.98;1.80;;;21.50;51.40;;;;;;4999442;28;20292;-78
2022/10/04 12:31:49;;;;;;;2.03;1.90;;;21.40;51.30;;;;;;4998759;28;20220;-78
2022/10/04 12:34:23;;;;;;;2.20;2.00;;;21.40;51.30;;;;;;4998935;28;20275;-78
2022/10/04 12:37:06;;;;;;;1.90;1.80;;;21.40;51.40;;;;;;4999715;28;20286;-78
2022/10/04 12:39:41;;;;;;;2.03;1.83;;;21.40;51.60;;;;;;4998546;28;20214;-78
2022/10/04 12:42:16;;;;;;;2.00;1.90;;;21.40;51.60;;;;;;4998305;28;20225;-78
2022/10/04 12:44:52;;;;;;;2.20;2.00;;;21.40;51.70;;;;;;4999440;28;20628;-78
2022/10/04 12:47:38;;;;;;;1.92;1.83;;;21.40;51.70;;;;;;4998335;28;20189;-78
2022/10/04 12:50:11;;;;;;;2.10;1.90;;;21.40;51.70;;;;;;4997844;28;20193;-78
2022/10/04 12:52:41;;;;;;;2.20;2.00;;;21.40;51.70;;;;;;4997310;28;20225;-78
2022/10/04 12:55:14;;;;;;;2.00;1.90;;;21.40;51.70;;;;;;4998495;28;20185;-78
2022/10/04 12:57:44;;;;;;;2.55;2.00;;;21.40;51.70;;;;;;4998256;28;20263;-78
2022/10/04 13:00:17;;;;;;;2.03;1.92;;;21.40;51.70;;;;;;4997634;28;20295;-78
2022/10/04 13:03:18;;;;;;;2.22;2.00;;;21.40;51.70;;;;;;5013500;28;20253;-77
2022/10/04 13:05:54;;;;;;;2.10;1.90;;;21.40;51.70;;;;;;5035849;28;20171;-78
2022/10/04 13:08:24;;;;;;;2.20;1.90;;;21.40;51.70;;;;;;5036250;28;20185;-78
2022/10/04 13:11:02;;;;;;;2.28;2.08;;;21.40;51.70;;;;;;5021148;28;20181;-78
2022/10/04 13:14:01;;;;;;;2.47;2.10;;;21.40;52.40;;;;;;4998421;28;20267;-78
2022/10/04 13:16:37;;;;;;;2.10;1.90;;;21.40;51.80;;;;;;4982876;28;20213;-78
2022/10/04 13:19:10;;;;;;;2.03;1.83;;;21.40;51.90;;;;;;5015133;28;20187;-78
2022/10/04 13:22:15;;;;;;;2.30;2.10;;;21.40;51.80;;;;;;4997773;28;20192;-78
2022/10/04 13:24:57;;;;;;;2.08;1.98;;;21.30;51.70;;;;;;4998371;28;20251;-78
2022/10/04 13:27:29;;;;;;;1.98;1.88;;;21.40;51.80;;;;;;4998505;28;20288;-78
2022/10/04 13:30:01;;;;;;;1.90;1.80;;;21.40;51.80;;;;;;4999442;28;20633;-78
2022/10/04 13:32:30;;;;;;;2.70;1.95;;;21.40;51.90;;;;;;4998944;28;20223;-78
2022/10/04 13:34:59;;;;;;;2.65;1.92;;;21.40;51.90;;;;;;4998733;28;20196;-78
2022/10/04 13:37:32;;;;;;;2.17;2.00;;;21.30;51.90;;;;;;4998506;28;20240;-78
2022/10/04 13:40:25;;;;;;;2.13;1.92;;;21.30;51.90;;;;;;4998196;28;20219;-78
2022/10/04 13:43:00;;;;;;;2.10;2.00;;;21.30;51.90;;;;;;4984585;28;20212;-78
2022/10/04 13:45:34;;;;;;;1.88;1.77;;;21.30;52.00;;;;;;4998072;28;20283;-78